Time;durP1;ratioP1;P1;durP2;ratioP2;P2;SDS_P1;SDS_P2;PMS_P1;PMS_P2;Temp;Humidity;BMP_temperature;BMP_pressure;BME280_temperature;BME280_humidity;BME280_pressure;Samples;Min_cycle;Max_cycle;Signal;HPM_P1;HPM_P2
2023/10/15 00:00:24;;;;;;;;;2.75;1.75;;;;;;;;6339720;22;45525;-74
2023/10/15 00:02:51;;;;;;;;;5.00;2.75;;;;;;;;6310766;22;45144;-75
2023/10/15 00:05:20;;;;;;;;;4.50;1.75;;;;;;;;6311481;22;45251;-74
2023/10/15 00:07:47;;;;;;;;;2.50;2.00;;;;;;;;6310693;22;45405;-74
2023/10/15 00:10:14;;;;;;;;;2.25;1.25;;;;;;;;6339498;22;46152;-74
2023/10/15 00:12:40;;;;;;;;;1.75;1.75;;;;;;;;6339050;22;45231;-74
2023/10/15 00:15:07;;;;;;;;;4.00;2.00;;;;;;;;6339918;22;45147;-74
2023/10/15 00:17:32;;;;;;;;;3.00;3.00;;;;;;;;6339120;22;45109;-74
2023/10/15 00:19:58;;;;;;;;;3.00;1.00;;;;;;;;6340336;22;45587;-74
2023/10/15 00:22:23;;;;;;;;;4.75;3.50;;;;;;;;6340946;22;45165;-74
2023/10/15 00:24:49;;;;;;;;;5.00;2.00;;;;;;;;6341126;22;45334;-74
2023/10/15 00:27:16;;;;;;;;;2.75;2.25;;;;;;;;6341032;22;45350;-74
2023/10/15 00:29:41;;;;;;;;;2.75;1.75;;;;;;;;6340736;22;45316;-74
2023/10/15 00:32:06;;;;;;;;;1.75;1.75;;;;;;;;6340818;22;45409;-74
2023/10/15 00:34:31;;;;;;;;;2.00;2.00;;;;;;;;6341263;22;45428;-74
2023/10/15 00:36:56;;;;;;;;;2.00;2.00;;;;;;;;6311243;22;46783;-74
2023/10/15 00:39:22;;;;;;;;;1.75;1.75;;;;;;;;6341130;22;45522;-74
2023/10/15 00:41:50;;;;;;;;;1.00;1.00;;;;;;;;6339619;22;45208;-74
2023/10/15 00:44:16;;;;;;;;;3.00;2.00;;;;;;;;6313003;22;45310;-73
2023/10/15 00:46:44;;;;;;;;;1.50;1.50;;;;;;;;6340768;22;45239;-74
2023/10/15 00:49:10;;;;;;;;;1.00;1.00;;;;;;;;6340759;22;45252;-74
2023/10/15 00:51:40;;;;;;;;;1.75;1.75;;;;;;;;6340829;22;45242;-74
2023/10/15 00:54:10;;;;;;;;;2.50;2.00;;;;;;;;6342742;22;45084;-74
2023/10/15 00:56:36;;;;;;;;;2.00;2.00;;;;;;;;6311323;22;45800;-74
2023/10/15 01:01:34;;;;;;;;;1.75;1.75;;;;;;;;6340329;22;45256;-74
2023/10/15 01:04:00;;;;;;;;;2.50;2.00;;;;;;;;6340900;22;45413;-74
2023/10/15 01:06:30;;;;;;;;;2.00;2.00;;;;;;;;6312227;22;47273;-74
2023/10/15 01:08:59;;;;;;;;;2.00;2.00;;;;;;;;6312361;22;47140;-74
2023/10/15 01:11:28;;;;;;;;;1.75;1.75;;;;;;;;6339354;22;45309;-74
2023/10/15 01:13:53;;;;;;;;;2.25;2.00;;;;;;;;6341184;22;45282;-74
2023/10/15 01:16:19;;;;;;;;;2.50;2.50;;;;;;;;6340751;22;45179;-74
2023/10/15 01:21:29;;;;;;;;;4.00;2.00;;;;;;;;6340434;22;45264;-75
2023/10/15 01:24:04;;;;;;;;;4.00;2.75;;;;;;;;6341041;22;45217;-74
2023/10/15 01:26:34;;;;;;;;;5.75;3.00;;;;;;;;6339632;22;45221;-74
2023/10/15 01:28:59;;;;;;;;;3.00;2.75;;;;;;;;6312405;22;46790;-74
2023/10/15 01:31:25;;;;;;;;;2.00;2.00;;;;;;;;6340627;22;45237;-73
2023/10/15 01:33:50;;;;;;;;;2.00;2.00;;;;;;;;6341231;22;45290;-72
2023/10/15 01:36:19;;;;;;;;;3.00;1.75;;;;;;;;6340526;22;45511;-72
2023/10/15 01:38:45;;;;;;;;;5.25;3.00;;;;;;;;6340625;22;45209;-73
2023/10/15 01:41:13;;;;;;;;;6.25;3.00;;;;;;;;6310469;22;45226;-73
2023/10/15 01:43:39;;;;;;;;;3.00;3.00;;;;;;;;6340892;22;45365;-73
2023/10/15 01:46:10;;;;;;;;;2.75;2.50;;;;;;;;6340336;22;45289;-73
2023/10/15 01:48:39;;;;;;;;;3.75;3.00;;;;;;;;6312243;22;47243;-72
2023/10/15 01:51:04;;;;;;;;;3.00;3.00;;;;;;;;6339301;22;45408;-72
2023/10/15 01:53:34;;;;;;;;;4.00;3.00;;;;;;;;6340727;22;45321;-73
2023/10/15 01:56:00;;;;;;;;;4.50;2.50;;;;;;;;6339808;22;45446;-72
2023/10/15 01:58:31;;;;;;;;;2.50;2.50;;;;;;;;6340809;22;46736;-72
2023/10/15 02:00:56;;;;;;;;;5.00;2.00;;;;;;;;6340367;22;45287;-72
2023/10/15 02:03:25;;;;;;;;;4.00;3.00;;;;;;;;6340813;22;45296;-72
2023/10/15 02:05:54;;;;;;;;;2.00;2.00;;;;;;;;6340156;22;45444;-72
2023/10/15 02:08:23;;;;;;;;;3.00;3.00;;;;;;;;6311913;22;45785;-73
2023/10/15 02:10:49;;;;;;;;;1.75;1.75;;;;;;;;6340336;22;45273;-72
2023/10/15 02:13:16;;;;;;;;;2.00;2.00;;;;;;;;6341068;22;45195;-72
2023/10/15 02:15:41;;;;;;;;;3.25;3.25;;;;;;;;6311746;22;45602;-72
2023/10/15 02:18:19;;;;;;;;;1.25;1.25;;;;;;;;6340559;22;45962;-72
2023/10/15 02:20:45;;;;;;;;;3.50;1.50;;;;;;;;6340426;22;45352;-74
2023/10/15 02:23:18;;;;;;;;;2.00;2.00;;;;;;;;6341733;22;45302;-74
2023/10/15 02:25:47;;;;;;;;;2.50;2.50;;;;;;;;6339971;22;45253;-72
2023/10/15 02:28:25;;;;;;;;;5.50;3.00;;;;;;;;6339718;22;45235;-72
2023/10/15 02:30:58;;;;;;;;;2.75;2.00;;;;;;;;6337515;22;45230;-72
2023/10/15 02:33:25;;;;;;;;;3.00;3.00;;;;;;;;6340433;22;45274;-71
2023/10/15 02:35:54;;;;;;;;;1.75;1.75;;;;;;;;6339519;22;46077;-72
2023/10/15 02:38:19;;;;;;;;;2.00;2.00;;;;;;;;6339334;22;45260;-72
2023/10/15 02:43:29;;;;;;;;;3.00;3.00;;;;;;;;6339278;22;45486;-72
2023/10/15 02:45:55;;;;;;;;;2.00;2.00;;;;;;;;6340159;22;45364;-72
2023/10/15 02:48:21;;;;;;;;;2.25;2.00;;;;;;;;6340371;22;45459;-72
2023/10/15 02:51:00;;;;;;;;;3.00;3.00;;;;;;;;6339666;22;45325;-72
2023/10/15 02:53:35;;;;;;;;;3.50;3.50;;;;;;;;6340402;22;45163;-72
2023/10/15 02:56:10;;;;;;;;;4.00;3.00;;;;;;;;6338057;22;45254;-72
2023/10/15 02:58:35;;;;;;;;;3.00;3.00;;;;;;;;6339767;22;45217;-71
2023/10/15 03:01:06;;;;;;;;;3.25;3.00;;;;;;;;6340321;22;45205;-71
2023/10/15 03:03:34;;;;;;;;;2.75;1.25;;;;;;;;6340529;22;45250;-72
2023/10/15 03:06:00;;;;;;;;;4.00;2.50;;;;;;;;6311650;22;45180;-72
2023/10/15 03:08:31;;;;;;;;;4.00;3.00;;;;;;;;6340089;22;46255;-72
2023/10/15 03:11:12;;;;;;;;;1.75;1.75;;;;;;;;6339581;22;45326;-72
2023/10/15 03:13:47;;;;;;;;;2.50;2.00;;;;;;;;6334030;22;45700;-72
2023/10/15 03:16:14;;;;;;;;;2.00;1.50;;;;;;;;6335477;22;46060;-72
2023/10/15 03:18:39;;;;;;;;;3.50;2.75;;;;;;;;6337161;22;45380;-72
2023/10/15 03:21:14;;;;;;;;;3.00;3.00;;;;;;;;6337561;22;45357;-72
2023/10/15 03:23:41;;;;;;;;;3.75;3.75;;;;;;;;6309142;22;45357;-72
2023/10/15 03:26:06;;;;;;;;;3.25;2.00;;;;;;;;6335923;22;45397;-72
2023/10/15 03:28:34;;;;;;;;;3.00;3.00;;;;;;;;6337030;22;45358;-72
2023/10/15 03:31:00;;;;;;;;;3.50;1.75;;;;;;;;6336964;22;45251;-72
2023/10/15 03:33:30;;;;;;;;;1.25;1.25;;;;;;;;6337624;22;45263;-72
2023/10/15 03:35:56;;;;;;;;;3.00;2.00;;;;;;;;6336913;22;45366;-71
2023/10/15 03:38:32;;;;;;;;;6.00;2.25;;;;;;;;6336774;22;45337;-71
2023/10/15 03:41:11;;;;;;;;;3.00;3.00;;;;;;;;6337015;22;45640;-72
2023/10/15 03:43:36;;;;;;;;;4.50;2.00;;;;;;;;6336316;22;45666;-74
2023/10/15 03:46:16;;;;;;;;;2.50;2.50;;;;;;;;6308333;22;47037;-72
2023/10/15 03:48:47;;;;;;;;;2.25;2.00;;;;;;;;6336086;22;45404;-72
2023/10/15 03:51:15;;;;;;;;;3.00;3.00;;;;;;;;6337037;22;45630;-72
2023/10/15 03:53:41;;;;;;;;;2.50;2.50;;;;;;;;6338245;22;45341;-72
2023/10/15 03:56:07;;;;;;;;;2.25;2.25;;;;;;;;6310251;22;45991;-72
2023/10/15 03:58:32;;;;;;;;;7.25;3.25;;;;;;;;6339148;22;45303;-72
2023/10/15 04:01:47;;;;;;;;;4.75;3.00;;;;;;;;6337922;22;45573;-72
2023/10/15 04:03:49;;;;;;;;;3.75;2.75;;;;;;;;6325216;22;45277;-72
2023/10/15 04:06:15;;;;;;;;;5.00;3.75;;;;;;;;6337801;22;45397;-72
2023/10/15 04:08:59;;;;;;;;;3.00;3.00;;;;;;;;6338214;22;46229;-72
2023/10/15 04:11:29;;;;;;;;;3.00;3.00;;;;;;;;6336114;22;45406;-72
2023/10/15 04:13:56;;;;;;;;;5.25;2.00;;;;;;;;6309724;22;45473;-72
2023/10/15 04:16:22;;;;;;;;;4.00;4.00;;;;;;;;6337997;22;45287;-72
2023/10/15 04:18:48;;;;;;;;;4.00;4.00;;;;;;;;6338154;22;45833;-72
2023/10/15 04:21:16;;;;;;;;;3.00;2.50;;;;;;;;6338152;22;45582;-72
2023/10/15 04:23:44;;;;;;;;;3.00;3.00;;;;;;;;6310305;22;45339;-72
2023/10/15 04:26:12;;;;;;;;;2.00;2.00;;;;;;;;6337437;22;45369;-72
2023/10/15 04:28:37;;;;;;;;;5.50;4.00;;;;;;;;6338228;22;45626;-72
2023/10/15 04:31:20;;;;;;;;;4.75;3.00;;;;;;;;6337409;22;45403;-72
2023/10/15 04:33:45;;;;;;;;;3.75;2.00;;;;;;;;6309490;22;45334;-71
2023/10/15 04:36:10;;;;;;;;;3.00;2.50;;;;;;;;6338107;22;45358;-73
2023/10/15 04:38:36;;;;;;;;;3.25;2.50;;;;;;;;6338827;22;46248;-72
2023/10/15 04:41:03;;;;;;;;;3.50;3.00;;;;;;;;6336875;22;45511;-73
2023/10/15 04:43:29;;;;;;;;;2.25;2.25;;;;;;;;6337171;22;45497;-72
2023/10/15 04:45:56;;;;;;;;;2.75;2.75;;;;;;;;6337875;22;45389;-72
2023/10/15 04:48:29;;;;;;;;;3.00;3.00;;;;;;;;6338475;22;45531;-73
2023/10/15 04:50:56;;;;;;;;;4.00;2.75;;;;;;;;6335289;22;45449;-72
2023/10/15 04:55:48;;;;;;;;;4.00;2.75;;;;;;;;6337205;22;45547;-72
2023/10/15 04:58:14;;;;;;;;;4.00;3.00;;;;;;;;6338311;22;45409;-72
2023/10/15 05:00:43;;;;;;;;;3.75;2.00;;;;;;;;6337787;22;45340;-73
2023/10/15 05:03:09;;;;;;;;;3.00;3.00;;;;;;;;6337711;22;45270;-73
2023/10/15 05:05:34;;;;;;;;;5.00;3.50;;;;;;;;6336438;22;45419;-72
2023/10/15 05:08:00;;;;;;;;;4.50;3.00;;;;;;;;6310710;22;47258;-72
2023/10/15 05:10:33;;;;;;;;;3.00;3.00;;;;;;;;6338636;22;45365;-72
2023/10/15 05:12:59;;;;;;;;;3.50;3.50;;;;;;;;6309920;22;45297;-72
2023/10/15 05:15:24;;;;;;;;;3.00;3.00;;;;;;;;6338948;22;45593;-72
2023/10/15 05:17:49;;;;;;;;;4.00;4.00;;;;;;;;6338591;22;45636;-72
2023/10/15 05:20:15;;;;;;;;;1.50;1.50;;;;;;;;6310663;22;45318;-72
2023/10/15 05:22:40;;;;;;;;;4.25;3.75;;;;;;;;6309603;22;45287;-72
2023/10/15 05:25:06;;;;;;;;;6.25;5.00;;;;;;;;6339091;22;45366;-74
2023/10/15 05:27:33;;;;;;;;;5.00;3.75;;;;;;;;6310731;22;47429;-73
2023/10/15 05:29:58;;;;;;;;;5.00;4.00;;;;;;;;6336956;22;45203;-72
2023/10/15 05:32:23;;;;;;;;;5.00;3.50;;;;;;;;6309089;22;45830;-73
2023/10/15 05:34:49;;;;;;;;;4.75;4.00;;;;;;;;6309781;22;46166;-72
2023/10/15 05:37:16;;;;;;;;;5.00;5.00;;;;;;;;6337634;22;47574;-72
2023/10/15 05:39:41;;;;;;;;;2.00;2.00;;;;;;;;6338390;22;45266;-72
2023/10/15 05:42:07;;;;;;;;;3.00;3.00;;;;;;;;6309690;22;45192;-72
2023/10/15 05:44:32;;;;;;;;;5.00;4.00;;;;;;;;6339067;22;45330;-72
2023/10/15 05:46:58;;;;;;;;;5.00;3.50;;;;;;;;6338435;22;46510;-72
2023/10/15 05:49:23;;;;;;;;;2.75;2.50;;;;;;;;6339101;22;45417;-72
2023/10/15 05:51:48;;;;;;;;;3.00;3.00;;;;;;;;6310062;22;45209;-72
2023/10/15 05:54:13;;;;;;;;;4.75;4.75;;;;;;;;6338990;22;45345;-71
2023/10/15 05:56:38;;;;;;;;;3.50;3.50;;;;;;;;6338019;22;46088;-72
2023/10/15 05:59:05;;;;;;;;;3.00;3.00;;;;;;;;6339088;22;45324;-72
2023/10/15 06:01:31;;;;;;;;;4.00;4.00;;;;;;;;6310294;22;45381;-72
2023/10/15 06:03:57;;;;;;;;;5.00;4.00;;;;;;;;6339074;22;45337;-72
2023/10/15 06:06:22;;;;;;;;;6.00;4.75;;;;;;;;6338445;22;46163;-72
2023/10/15 06:08:49;;;;;;;;;5.00;4.00;;;;;;;;6310357;22;45310;-72
2023/10/15 06:11:14;;;;;;;;;3.25;3.25;;;;;;;;6339349;22;45301;-74
2023/10/15 06:13:39;;;;;;;;;5.75;4.50;;;;;;;;6340736;22;45504;-73
2023/10/15 06:16:04;;;;;;;;;2.50;2.50;;;;;;;;6340425;22;46350;-73
2023/10/15 06:18:30;;;;;;;;;4.75;2.75;;;;;;;;6339452;22;45344;-73
2023/10/15 06:20:55;;;;;;;;;5.75;3.50;;;;;;;;6340515;22;45148;-73
2023/10/15 06:23:20;;;;;;;;;3.00;3.00;;;;;;;;6340041;22;45223;-71
2023/10/15 06:25:45;;;;;;;;;4.00;3.50;;;;;;;;6340081;22;45363;-72
2023/10/15 06:28:14;;;;;;;;;8.50;3.50;;;;;;;;6312179;22;45351;-72
2023/10/15 06:30:39;;;;;;;;;4.00;4.00;;;;;;;;6340432;22;45183;-73
2023/10/15 06:33:05;;;;;;;;;5.75;4.00;;;;;;;;6339771;22;45411;-72
2023/10/15 06:35:30;;;;;;;;;3.50;3.00;;;;;;;;6340486;22;45681;-72
2023/10/15 06:37:55;;;;;;;;;3.50;3.50;;;;;;;;6311047;22;45198;-72
2023/10/15 06:40:21;;;;;;;;;3.75;3.75;;;;;;;;6340038;22;45468;-72
2023/10/15 06:42:47;;;;;;;;;5.00;5.00;;;;;;;;6307676;22;45472;-72
2023/10/15 06:45:18;;;;;;;;;6.25;5.50;;;;;;;;6308477;22;46323;-72
2023/10/15 06:47:44;;;;;;;;;4.50;4.00;;;;;;;;6308374;22;45176;-72
2023/10/15 06:50:09;;;;;;;;;8.50;4.50;;;;;;;;6308569;22;45239;-72
2023/10/15 06:52:38;;;;;;;;;5.75;5.00;;;;;;;;6308465;22;45453;-73
2023/10/15 06:55:07;;;;;;;;;4.50;3.25;;;;;;;;6280162;22;47218;-72
2023/10/15 06:57:33;;;;;;;;;5.00;5.00;;;;;;;;6307948;22;45263;-74
2023/10/15 06:59:58;;;;;;;;;5.25;5.25;;;;;;;;6280765;22;45185;-72
2023/10/15 07:02:23;;;;;;;;;6.75;5.00;;;;;;;;6308002;22;45178;-72
2023/10/15 07:04:49;;;;;;;;;6.50;6.50;;;;;;;;6280327;22;46929;-71
2023/10/15 07:07:14;;;;;;;;;7.50;6.00;;;;;;;;6308273;22;45220;-71
2023/10/15 07:09:40;;;;;;;;;5.50;5.00;;;;;;;;6308443;22;45145;-73
2023/10/15 07:12:05;;;;;;;;;6.00;6.00;;;;;;;;6279964;22;46002;-71
2023/10/15 07:14:30;;;;;;;;;12.00;10.75;;;;;;;;6308039;22;46266;-71
2023/10/15 07:16:56;;;;;;;;;49.75;38.75;;;;;;;;6308536;22;45290;-70
2023/10/15 07:19:21;;;;;;;;;11.00;9.50;;;;;;;;6308848;22;45192;-71
2023/10/15 07:21:46;;;;;;;;;10.25;6.25;;;;;;;;6278977;22;46429;-71
2023/10/15 07:24:12;;;;;;;;;12.25;10.75;;;;;;;;6308658;22;46117;-71
2023/10/15 07:26:40;;;;;;;;;9.75;9.75;;;;;;;;6307495;22;45178;-71
2023/10/15 07:29:05;;;;;;;;;7.50;7.50;;;;;;;;6309129;22;45214;-71
2023/10/15 07:31:31;;;;;;;;;3.00;2.00;;;;;;;;6309395;22;45339;-71
2023/10/15 07:33:56;;;;;;;;;7.00;6.75;;;;;;;;6309731;22;45365;-72
2023/10/15 07:36:22;;;;;;;;;11.75;10.50;;;;;;;;6309501;22;45153;-72
2023/10/15 07:38:47;;;;;;;;;6.75;5.75;;;;;;;;6281520;22;45291;-71
2023/10/15 07:41:12;;;;;;;;;9.50;7.00;;;;;;;;6280590;22;45184;-71
2023/10/15 07:43:37;;;;;;;;;7.50;6.00;;;;;;;;6309491;22;46453;-71
2023/10/15 07:46:03;;;;;;;;;6.50;6.00;;;;;;;;6309599;22;45327;-71
2023/10/15 07:48:29;;;;;;;;;5.50;5.50;;;;;;;;6310009;22;45296;-71
2023/10/15 07:50:54;;;;;;;;;3.50;3.00;;;;;;;;6281001;22;46187;-73
2023/10/15 07:53:21;;;;;;;;;7.00;6.25;;;;;;;;6309316;22;45261;-72
2023/10/15 07:55:46;;;;;;;;;7.00;5.00;;;;;;;;6309109;22;45341;-71
2023/10/15 07:58:12;;;;;;;;;9.75;7.00;;;;;;;;6309873;22;45247;-71
2023/10/15 08:00:37;;;;;;;;;8.25;7.00;;;;;;;;6309657;22;45295;-73
2023/10/15 08:03:02;;;;;;;;;11.00;6.00;;;;;;;;6309688;22;45565;-72
2023/10/15 08:05:31;;;;;;;;;9.50;8.00;;;;;;;;6309906;22;45259;-73
2023/10/15 08:07:57;;;;;;;;;13.75;7.75;;;;;;;;6309554;22;45252;-71
2023/10/15 08:10:24;;;;;;;;;6.50;6.00;;;;;;;;6309395;22;45421;-71
2023/10/15 08:12:50;;;;;;;;;7.00;6.00;;;;;;;;6281081;22;47856;-71
2023/10/15 08:15:16;;;;;;;;;7.00;6.75;;;;;;;;6308062;22;45635;-74
2023/10/15 08:17:41;;;;;;;;;6.75;6.00;;;;;;;;6309075;22;45232;-71
2023/10/15 08:20:09;;;;;;;;;6.00;5.00;;;;;;;;6309269;22;45321;-72
2023/10/15 08:22:34;;;;;;;;;7.25;3.75;;;;;;;;6308634;22;45558;-71
2023/10/15 08:25:00;;;;;;;;;6.00;6.00;;;;;;;;6309265;22;45224;-72
2023/10/15 08:27:25;;;;;;;;;6.75;5.50;;;;;;;;6309158;22;45206;-72
2023/10/15 08:29:50;;;;;;;;;6.00;6.00;;;;;;;;6309290;22;45528;-73
2023/10/15 08:32:18;;;;;;;;;9.50;6.50;;;;;;;;6308993;22;45365;-72
2023/10/15 08:34:44;;;;;;;;;6.25;6.25;;;;;;;;6308680;22;45248;-73
2023/10/15 08:37:10;;;;;;;;;6.00;6.00;;;;;;;;6309023;22;45419;-72
2023/10/15 08:39:38;;;;;;;;;7.00;7.00;;;;;;;;6308565;22;45378;-72
2023/10/15 08:42:03;;;;;;;;;5.25;5.00;;;;;;;;6310022;22;46115;-72
2023/10/15 08:44:29;;;;;;;;;4.25;4.25;;;;;;;;6308893;22;45224;-73
2023/10/15 08:46:57;;;;;;;;;4.00;3.75;;;;;;;;6308390;22;45389;-72
2023/10/15 08:49:24;;;;;;;;;3.75;3.75;;;;;;;;6308016;22;45243;-72
2023/10/15 08:51:50;;;;;;;;;2.00;2.00;;;;;;;;6307998;22;45612;-73
2023/10/15 08:54:17;;;;;;;;;1.00;1.00;;;;;;;;6280113;22;45318;-73
2023/10/15 08:56:43;;;;;;;;;2.00;1.00;;;;;;;;6308922;22;45200;-72
2023/10/15 08:59:09;;;;;;;;;1.25;1.25;;;;;;;;6308955;22;45435;-72
2023/10/15 09:01:35;;;;;;;;;1.00;1.00;;;;;;;;6308804;22;45280;-72
2023/10/15 09:04:00;;;;;;;;;1.00;1.00;;;;;;;;6280498;22;45142;-73
2023/10/15 09:06:26;;;;;;;;;2.00;2.00;;;;;;;;6309096;22;45151;-72
2023/10/15 09:08:52;;;;;;;;;2.00;1.75;;;;;;;;6309322;22;45210;-72
2023/10/15 09:11:17;;;;;;;;;1.25;1.00;;;;;;;;6308039;22;45198;-72
2023/10/15 09:13:48;;;;;;;;;1.75;1.00;;;;;;;;6308642;22;45147;-73
2023/10/15 09:16:14;;;;;;;;;1.00;1.00;;;;;;;;6309049;22;45363;-73
2023/10/15 09:18:39;;;;;;;;;1.00;1.00;;;;;;;;6280374;22;46050;-73
2023/10/15 09:21:04;;;;;;;;;1.25;1.00;;;;;;;;6308808;22;45334;-72
2023/10/15 09:23:36;;;;;;;;;0.75;0.75;;;;;;;;6280622;22;45602;-73
2023/10/15 09:26:02;;;;;;;;;1.00;1.00;;;;;;;;6280345;22;45293;-72
2023/10/15 09:28:27;;;;;;;;;4.00;2.00;;;;;;;;6280566;22;45965;-73
2023/10/15 09:31:00;;;;;;;;;1.00;1.00;;;;;;;;6308743;22;45990;-73
2023/10/15 09:33:29;;;;;;;;;1.75;0.75;;;;;;;;6307347;22;45346;-75
2023/10/15 09:35:55;;;;;;;;;0.67;0.00;;;;;;;;6308270;22;44784;-73
2023/10/15 09:38:20;;;;;;;;;1.75;0.75;;;;;;;;6308835;22;45108;-73
2023/10/15 09:40:46;;;;;;;;;0.00;0.00;;;;;;;;6307871;22;45140;-73
2023/10/15 09:43:13;;;;;;;;;1.00;1.00;;;;;;;;6308154;22;45168;-73
2023/10/15 09:45:41;;;;;;;;;1.00;1.00;;;;;;;;6308273;22;45247;-74
2023/10/15 09:48:09;;;;;;;;;0.00;0.00;;;;;;;;6308667;22;45224;-73
2023/10/15 09:50:38;;;;;;;;;2.00;1.00;;;;;;;;6307667;22;45315;-73
2023/10/15 09:53:09;;;;;;;;;0.67;0.67;;;;;;;;6307536;22;45243;-75
2023/10/15 09:55:35;;;;;;;;;0.33;0.00;;;;;;;;6308637;22;45290;-73
2023/10/15 09:58:01;;;;;;;;;0.00;0.00;;;;;;;;6308159;22;45565;-74
2023/10/15 10:00:46;;;;;;;;;0.00;0.00;;;;;;;;6308967;22;45117;-73
2023/10/15 10:03:30;;;;;;;;;0.33;0.33;;;;;;;;6279708;22;45199;-72
2023/10/15 10:05:59;;;;;;;;;1.00;1.00;;;;;;;;6280914;22;45197;-74
2023/10/15 10:08:24;;;;;;;;;1.00;1.00;;;;;;;;6308666;22;45192;-74
2023/10/15 10:11:08;;;;;;;;;0.33;0.00;;;;;;;;6308432;22;45326;-73
2023/10/15 10:13:37;;;;;;;;;0.67;0.67;;;;;;;;6281133;22;45221;-73
2023/10/15 10:16:09;;;;;;;;;0.00;0.00;;;;;;;;6308448;22;45479;-73
2023/10/15 10:18:37;;;;;;;;;1.00;1.00;;;;;;;;6308948;22;45531;-73
2023/10/15 10:21:11;;;;;;;;;0.33;0.00;;;;;;;;6308157;22;46462;-73
2023/10/15 10:23:37;;;;;;;;;1.00;1.00;;;;;;;;6308149;22;45297;-73
2023/10/15 10:26:10;;;;;;;;;0.33;0.33;;;;;;;;6308291;22;45228;-73
2023/10/15 10:28:36;;;;;;;;;0.00;0.00;;;;;;;;6310703;22;45315;-73
2023/10/15 10:31:01;;;;;;;;;1.00;1.00;;;;;;;;6308659;22;45281;-73
2023/10/15 10:33:40;;;;;;;;;0.00;0.00;;;;;;;;6308322;22;45257;-73
2023/10/15 10:36:15;;;;;;;;;1.33;0.00;;;;;;;;6280655;22;45161;-73
2023/10/15 10:38:41;;;;;;;;;2.00;0.00;;;;;;;;6308722;22;45283;-73
2023/10/15 10:41:13;;;;;;;;;2.00;1.00;;;;;;;;6307504;22;46377;-73
2023/10/15 10:43:40;;;;;;;;;1.00;0.00;;;;;;;;6308542;22;45280;-73
2023/10/15 10:46:06;;;;;;;;;0.33;0.33;;;;;;;;6308479;22;45246;-73
2023/10/15 10:48:39;;;;;;;;;2.00;1.00;;;;;;;;6308395;22;45612;-73
2023/10/15 10:51:21;;;;;;;;;1.00;1.00;;;;;;;;6307753;22;45270;-73
2023/10/15 10:53:55;;;;;;;;;0.67;0.67;;;;;;;;6279273;22;45253;-73
2023/10/15 10:56:20;;;;;;;;;0.00;0.00;;;;;;;;6307685;22;45291;-73
2023/10/15 10:58:46;;;;;;;;;1.67;0.67;;;;;;;;6307993;22;45401;-73
2023/10/15 11:01:13;;;;;;;;;1.33;1.00;;;;;;;;6307692;22;45578;-72
2023/10/15 11:03:40;;;;;;;;;0.67;0.67;;;;;;;;6307831;22;45295;-72
2023/10/15 11:06:07;;;;;;;;;0.00;0.00;;;;;;;;6279781;22;44682;-72
2023/10/15 11:08:32;;;;;;;;;1.33;0.67;;;;;;;;6307491;22;46150;-72
2023/10/15 11:10:59;;;;;;;;;5.00;4.67;;;;;;;;6307358;22;46199;-72
2023/10/15 11:13:24;;;;;;;;;0.00;0.00;;;;;;;;6279977;22;45186;-72
2023/10/15 11:15:50;;;;;;;;;2.00;1.00;;;;;;;;6307709;22;45220;-72
2023/10/15 11:18:25;;;;;;;;;0.00;0.00;;;;;;;;6308115;22;45189;-72
2023/10/15 11:20:53;;;;;;;;;0.00;0.00;;;;;;;;6308223;22;45435;-74
2023/10/15 11:23:23;;;;;;;;;0.67;0.33;;;;;;;;6308303;22;45221;-74
2023/10/15 11:25:54;;;;;;;;;0.00;0.00;;;;;;;;6307854;22;45242;-74
2023/10/15 11:28:19;;;;;;;;;0.33;0.33;;;;;;;;6307738;22;45243;-74
2023/10/15 11:30:45;;;;;;;;;1.67;0.67;;;;;;;;6307865;22;45193;-73
2023/10/15 11:33:11;;;;;;;;;1.33;0.00;;;;;;;;6307978;22;45216;-72
2023/10/15 11:35:37;;;;;;;;;2.00;1.00;;;;;;;;6308223;22;45143;-72
2023/10/15 11:38:10;;;;;;;;;0.00;0.00;;;;;;;;6279334;22;45661;-73
2023/10/15 11:40:38;;;;;;;;;22.00;18.33;;;;;;;;6307699;22;46701;-73
2023/10/15 11:43:24;;;;;;;;;3.67;2.67;;;;;;;;6307351;22;45233;-74
2023/10/15 11:45:56;;;;;;;;;7.00;4.67;;;;;;;;6279032;22;45238;-73
2023/10/15 11:48:21;;;;;;;;;0.33;0.33;;;;;;;;6279284;22;45988;-73
2023/10/15 11:50:48;;;;;;;;;0.00;0.00;;;;;;;;6307820;22;45192;-73
2023/10/15 11:53:16;;;;;;;;;0.33;0.33;;;;;;;;6308122;22;45318;-73
2023/10/15 11:55:47;;;;;;;;;2.00;1.00;;;;;;;;6307433;22;45360;-73
2023/10/15 11:58:12;;;;;;;;;0.00;0.00;;;;;;;;6279420;22;46049;-73
2023/10/15 12:00:39;;;;;;;;;1.00;1.00;;;;;;;;6307845;22;45109;-72
2023/10/15 12:03:05;;;;;;;;;4.67;3.33;;;;;;;;6279440;22;45390;-73
2023/10/15 12:05:31;;;;;;;;;0.67;0.00;;;;;;;;6307978;22;45300;-73
2023/10/15 12:07:57;;;;;;;;;2.00;0.67;;;;;;;;6306281;22;45484;-73
2023/10/15 12:10:22;;;;;;;;;0.00;0.00;;;;;;;;6279456;22;48294;-73
2023/10/15 12:12:49;;;;;;;;;0.00;0.00;;;;;;;;6307535;22;45169;-72
2023/10/15 12:15:14;;;;;;;;;0.00;0.00;;;;;;;;6310165;22;45257;-72
2023/10/15 12:17:39;;;;;;;;;0.67;0.67;;;;;;;;6309393;22;45173;-73
2023/10/15 12:20:06;;;;;;;;;0.00;0.00;;;;;;;;6310729;22;46200;-73
2023/10/15 12:22:32;;;;;;;;;0.00;0.00;;;;;;;;6308969;22;45246;-73
2023/10/15 12:24:57;;;;;;;;;0.00;0.00;;;;;;;;6309098;22;45288;-72
2023/10/15 12:27:22;;;;;;;;;0.67;0.67;;;;;;;;6309392;22;45323;-73
2023/10/15 12:29:47;;;;;;;;;0.00;0.00;;;;;;;;6280893;22;48018;-73
2023/10/15 12:32:13;;;;;;;;;0.67;0.00;;;;;;;;6281252;22;45286;-73
2023/10/15 12:34:39;;;;;;;;;0.00;0.00;;;;;;;;6309742;22;45208;-73
2023/10/15 12:37:07;;;;;;;;;1.67;1.00;;;;;;;;6309026;22;45156;-72
2023/10/15 12:39:32;;;;;;;;;0.33;0.33;;;;;;;;6308109;22;45504;-72
2023/10/15 12:41:59;;;;;;;;;0.67;0.67;;;;;;;;6306432;22;45453;-72
2023/10/15 12:44:27;;;;;;;;;1.33;1.00;;;;;;;;6280991;22;45345;-73
2023/10/15 12:46:53;;;;;;;;;0.67;0.67;;;;;;;;6308229;22;45256;-73
2023/10/15 12:49:19;;;;;;;;;0.00;0.00;;;;;;;;6308966;22;46128;-74
2023/10/15 12:51:44;;;;;;;;;0.00;0.00;;;;;;;;6308899;22;45290;-73
2023/10/15 12:54:09;;;;;;;;;1.67;0.00;;;;;;;;6308949;22;44691;-72
2023/10/15 12:56:34;;;;;;;;;0.00;0.00;;;;;;;;6308869;22;45140;-73
2023/10/15 12:59:00;;;;;;;;;0.00;0.00;;;;;;;;6280579;22;46818;-73
2023/10/15 13:01:26;;;;;;;;;0.00;0.00;;;;;;;;6309121;22;45345;-73
2023/10/15 13:03:51;;;;;;;;;1.33;0.00;;;;;;;;6280713;22;45330;-71
2023/10/15 13:06:16;;;;;;;;;0.00;0.00;;;;;;;;6280409;22;46164;-74
2023/10/15 13:08:42;;;;;;;;;3.67;2.00;;;;;;;;6280212;22;46503;-74
2023/10/15 13:11:07;;;;;;;;;14.00;14.00;;;;;;;;6304798;22;45318;-74
2023/10/15 13:13:33;;;;;;;;;1.00;1.00;;;;;;;;6306128;22;45291;-73
2023/10/15 13:15:58;;;;;;;;;0.67;0.67;;;;;;;;6305858;22;45388;-73
2023/10/15 13:18:23;;;;;;;;;8.33;4.33;;;;;;;;6305993;22;45511;-71
2023/10/15 13:20:49;;;;;;;;;0.67;0.67;;;;;;;;6305167;22;45253;-73
2023/10/15 13:23:14;;;;;;;;;1.67;0.00;;;;;;;;6306406;22;45307;-73
2023/10/15 13:25:39;;;;;;;;;0.00;0.00;;;;;;;;6305483;22;44919;-73
2023/10/15 13:28:04;;;;;;;;;5.33;5.00;;;;;;;;6305467;22;45459;-73
2023/10/15 13:30:30;;;;;;;;;8.67;5.67;;;;;;;;6305791;22;45358;-73
2023/10/15 13:32:56;;;;;;;;;6.00;4.67;;;;;;;;6305773;22;45244;-71
2023/10/15 13:35:21;;;;;;;;;0.67;0.67;;;;;;;;6306218;22;45445;-73
2023/10/15 13:37:47;;;;;;;;;1.33;1.33;;;;;;;;6276843;22;48303;-73
2023/10/15 13:40:12;;;;;;;;;1.00;1.00;;;;;;;;6304775;22;45350;-72
2023/10/15 13:42:38;;;;;;;;;2.00;2.00;;;;;;;;6275579;22;45254;-73
2023/10/15 13:45:04;;;;;;;;;1.00;1.00;;;;;;;;6305985;22;45455;-73
2023/10/15 13:47:30;;;;;;;;;1.67;0.00;;;;;;;;6305563;22;45280;-73
2023/10/15 13:49:56;;;;;;;;;0.00;0.00;;;;;;;;6306490;22;45346;-73
2023/10/15 13:52:22;;;;;;;;;0.00;0.00;;;;;;;;6307081;22;45306;-73
2023/10/15 13:54:47;;;;;;;;;0.67;0.00;;;;;;;;6306130;22;45240;-73
2023/10/15 13:57:12;;;;;;;;;0.00;0.00;;;;;;;;6307544;22;45438;-73
2023/10/15 13:59:37;;;;;;;;;0.00;0.00;;;;;;;;6308627;22;45291;-73
2023/10/15 14:02:06;;;;;;;;;0.00;0.00;;;;;;;;6308807;22;45399;-73
2023/10/15 14:04:32;;;;;;;;;2.00;1.67;;;;;;;;6308303;22;45491;-72
2023/10/15 14:06:57;;;;;;;;;0.00;0.00;;;;;;;;6308059;22;45271;-72
2023/10/15 14:09:23;;;;;;;;;0.00;0.00;;;;;;;;6308464;22;45256;-72
2023/10/15 14:11:49;;;;;;;;;0.67;0.00;;;;;;;;6308429;22;45169;-72
2023/10/15 14:14:14;;;;;;;;;0.00;0.00;;;;;;;;6280454;22;46949;-73
2023/10/15 14:16:39;;;;;;;;;0.33;0.00;;;;;;;;6308455;22;45141;-73
2023/10/15 14:19:04;;;;;;;;;0.00;0.00;;;;;;;;6306718;22;45224;-73
2023/10/15 14:21:30;;;;;;;;;0.00;0.00;;;;;;;;6276759;22;45581;-73
2023/10/15 14:23:55;;;;;;;;;0.00;0.00;;;;;;;;6276827;22;45416;-73
2023/10/15 14:26:21;;;;;;;;;0.00;0.00;;;;;;;;6305796;22;45319;-72
2023/10/15 14:28:46;;;;;;;;;1.00;1.00;;;;;;;;6306289;22;45354;-72
2023/10/15 14:31:11;;;;;;;;;1.33;0.00;;;;;;;;6306024;22;45963;-72
2023/10/15 14:33:38;;;;;;;;;0.00;0.00;;;;;;;;6305670;22;45409;-73
2023/10/15 14:36:03;;;;;;;;;0.00;0.00;;;;;;;;6307589;22;45344;-72
2023/10/15 14:38:29;;;;;;;;;0.33;0.00;;;;;;;;6306685;22;45235;-72
2023/10/15 14:40:55;;;;;;;;;3.67;0.00;;;;;;;;6307927;22;45406;-73
2023/10/15 14:43:20;;;;;;;;;0.00;0.00;;;;;;;;6307760;22;45170;-73
2023/10/15 14:45:45;;;;;;;;;1.67;0.00;;;;;;;;6279989;22;48039;-73
2023/10/15 14:48:11;;;;;;;;;1.00;0.00;;;;;;;;6309714;22;45279;-72
2023/10/15 14:50:40;;;;;;;;;0.67;0.00;;;;;;;;6281841;22;45106;-71
2023/10/15 14:53:05;;;;;;;;;0.67;0.00;;;;;;;;6308867;22;44602;-73